createdAt,value
2023-04-16T00:01:05.166Z,96.66
2023-04-16T00:31:05.236Z,96.89
2023-04-16T01:01:05.210Z,97.11
2023-04-16T01:32:17.090Z,97.21
2023-04-16T02:01:05.517Z,97.31
2023-04-16T02:31:05.467Z,97.64
2023-04-16T03:01:05.506Z,97.72
2023-04-16T03:31:05.637Z,97.7
2023-04-16T04:01:05.483Z,97.75
2023-04-16T04:31:05.480Z,97.5
2023-04-16T05:01:05.525Z,97.88
2023-04-16T05:31:05.550Z,97.88
2023-04-16T06:01:05.497Z,97.98
2023-04-16T06:31:05.571Z,98.17
2023-04-16T07:01:05.597Z,98.11
2023-04-16T07:31:05.517Z,98.21
2023-04-16T08:31:05.675Z,97.97
2023-04-16T09:01:05.632Z,97.97
2023-04-16T09:31:05.631Z,97.97
2023-04-16T10:01:05.649Z,89.95
2023-04-16T10:31:05.690Z,94.8
2023-04-16T11:01:05.852Z,95.62
2023-04-16T11:31:05.690Z,96.12
2023-04-16T12:01:05.684Z,95.73
2023-04-16T12:31:05.755Z,94.92
2023-04-16T13:01:05.691Z,93.46
2023-04-16T13:31:06.104Z,91.42
2023-04-16T14:01:05.735Z,92.47
2023-04-16T14:31:05.720Z,90.36
2023-04-16T15:01:05.724Z,88.75
2023-04-16T15:31:05.772Z,88.43
2023-04-16T16:01:05.705Z,87.99
2023-04-16T16:31:05.758Z,88.69
2023-04-16T17:01:05.787Z,88.49
2023-04-16T17:31:05.723Z,88.62
2023-04-16T18:01:05.773Z,88.83
2023-04-16T18:31:05.755Z,89.08
2023-04-16T19:01:05.781Z,89.12
2023-04-16T19:31:05.730Z,89.49
2023-04-16T20:01:05.814Z,89.75
2023-04-16T20:31:05.828Z,89.79
2023-04-16T21:01:05.754Z,89.95
2023-04-16T21:31:05.786Z,89.96
2023-04-16T22:01:06.514Z,90.11
2023-04-16T22:31:05.806Z,89.93
2023-04-16T23:01:05.824Z,89.97
2023-04-16T23:31:07.270Z,89.94
